sensor_id;sensor_type;location;lat;lon;timestamp;temperature;humidity
23301;DHT22;11819;51.394;12.340;2022-11-20T00:00:24;-0.90;83.30
23301;DHT22;11819;51.394;12.340;2022-11-20T00:02:50;-0.90;83.30
23301;DHT22;11819;51.394;12.340;2022-11-20T00:05:15;-1.00;83.20
23301;DHT22;11819;51.394;12.340;2022-11-20T00:07:41;-1.00;83.30
23301;DHT22;11819;51.394;12.340;2022-11-20T00:10:07;-1.10;83.30
23301;DHT22;11819;51.394;12.340;2022-11-20T00:12:32;-1.10;83.50
23301;DHT22;11819;51.394;12.340;2022-11-20T00:14:58;-1.10;83.70
23301;DHT22;11819;51.394;12.340;2022-11-20T00:17:24;-1.10;83.80
23301;DHT22;11819;51.394;12.340;2022-11-20T00:19:49;-1.10;83.80
23301;DHT22;11819;51.394;12.340;2022-11-20T00:22:15;-1.10;83.90
23301;DHT22;11819;51.394;12.340;2022-11-20T00:24:41;-1.10;83.90
23301;DHT22;11819;51.394;12.340;2022-11-20T00:27:06;-1.10;83.90
23301;DHT22;11819;51.394;12.340;2022-11-20T00:29:32;-1.10;83.90
23301;DHT22;11819;51.394;12.340;2022-11-20T00:31:57;-1.20;83.90
23301;DHT22;11819;51.394;12.340;2022-11-20T00:34:23;-1.10;84.00
23301;DHT22;11819;51.394;12.340;2022-11-20T00:36:49;-1.10;84.00
23301;DHT22;11819;51.394;12.340;2022-11-20T00:39:14;-1.10;84.00
23301;DHT22;11819;51.394;12.340;2022-11-20T00:41:40;-1.10;83.90
23301;DHT22;11819;51.394;12.340;2022-11-20T00:44:05;-1.10;84.00
23301;DHT22;11819;51.394;12.340;2022-11-20T00:46:31;-1.10;84.80
23301;DHT22;11819;51.394;12.340;2022-11-20T00:48:57;-1.00;84.00
23301;DHT22;11819;51.394;12.340;2022-11-20T00:51:25;-1.00;83.90
23301;DHT22;11819;51.394;12.340;2022-11-20T00:53:51;-1.10;83.70
23301;DHT22;11819;51.394;12.340;2022-11-20T00:56:18;-1.10;83.70
23301;DHT22;11819;51.394;12.340;2022-11-20T00:58:46;-1.20;83.80
23301;DHT22;11819;51.394;12.340;2022-11-20T01:01:20;-1.20;84.00
23301;DHT22;11819;51.394;12.340;2022-11-20T01:03:48;-1.20;84.10
23301;DHT22;11819;51.394;12.340;2022-11-20T01:06:19;-1.20;84.10
23301;DHT22;11819;51.394;12.340;2022-11-20T01:08:46;-1.20;84.30
23301;DHT22;11819;51.394;12.340;2022-11-20T01:11:15;-1.20;84.20
23301;DHT22;11819;51.394;12.340;2022-11-20T01:13:42;-1.20;84.10
23301;DHT22;11819;51.394;12.340;2022-11-20T01:16:11;-1.10;84.20
23301;DHT22;11819;51.394;12.340;2022-11-20T01:18:40;-1.00;84.20
23301;DHT22;11819;51.394;12.340;2022-11-20T01:21:11;-1.10;84.00
23301;DHT22;11819;51.394;12.340;2022-11-20T01:23:39;-1.10;83.90
23301;DHT22;11819;51.394;12.340;2022-11-20T01:26:32;-1.10;84.60
23301;DHT22;11819;51.394;12.340;2022-11-20T01:28:59;-1.10;83.90
23301;DHT22;11819;51.394;12.340;2022-11-20T01:31:28;-1.00;84.10
23301;DHT22;11819;51.394;12.340;2022-11-20T01:33:55;-1.00;84.10
23301;DHT22;11819;51.394;12.340;2022-11-20T01:36:24;-1.00;84.10
23301;DHT22;11819;51.394;12.340;2022-11-20T01:38:58;-1.00;84.00
23301;DHT22;11819;51.394;12.340;2022-11-20T01:41:29;-0.90;84.00
23301;DHT22;11819;51.394;12.340;2022-11-20T01:44:14;-0.90;84.70
23301;DHT22;11819;51.394;12.340;2022-11-20T01:46:50;-0.90;83.90
23301;DHT22;11819;51.394;12.340;2022-11-20T01:52:16;-0.90;83.60
23301;DHT22;11819;51.394;12.340;2022-11-20T01:54:50;-0.90;83.60
23301;DHT22;11819;51.394;12.340;2022-11-20T01:57:18;-0.80;83.70
23301;DHT22;11819;51.394;12.340;2022-11-20T01:59:49;-0.90;83.40
23301;DHT22;11819;51.394;12.340;2022-11-20T02:02:19;-0.90;83.40
23301;DHT22;11819;51.394;12.340;2022-11-20T02:04:44;-0.90;83.40
23301;DHT22;11819;51.394;12.340;2022-11-20T02:07:10;-1.00;83.40
23301;DHT22;11819;51.394;12.340;2022-11-20T02:09:36;-1.00;83.40
23301;DHT22;11819;51.394;12.340;2022-11-20T02:12:03;-1.00;83.40
23301;DHT22;11819;51.394;12.340;2022-11-20T02:14:29;-1.10;83.30
23301;DHT22;11819;51.394;12.340;2022-11-20T02:16:55;-1.10;83.50
23301;DHT22;11819;51.394;12.340;2022-11-20T02:19:28;-1.10;83.50
23301;DHT22;11819;51.394;12.340;2022-11-20T02:22:14;-1.10;83.70
23301;DHT22;11819;51.394;12.340;2022-11-20T02:24:43;-1.10;83.70
23301;DHT22;11819;51.394;12.340;2022-11-20T02:27:15;-1.10;84.00
23301;DHT22;11819;51.394;12.340;2022-11-20T02:29:44;-1.10;83.80
23301;DHT22;11819;51.394;12.340;2022-11-20T02:32:39;-1.00;83.90
23301;DHT22;11819;51.394;12.340;2022-11-20T02:37:52;-1.00;83.70
23301;DHT22;11819;51.394;12.340;2022-11-20T02:40:18;-1.00;83.80
23301;DHT22;11819;51.394;12.340;2022-11-20T02:42:44;-1.00;83.80
23301;DHT22;11819;51.394;12.340;2022-11-20T02:45:10;-1.00;83.70
23301;DHT22;11819;51.394;12.340;2022-11-20T02:47:37;-1.00;83.50
23301;DHT22;11819;51.394;12.340;2022-11-20T02:50:03;-1.00;83.40
23301;DHT22;11819;51.394;12.340;2022-11-20T02:52:30;-1.10;83.30
23301;DHT22;11819;51.394;12.340;2022-11-20T02:54:55;-1.10;83.40
23301;DHT22;11819;51.394;12.340;2022-11-20T02:57:21;-1.20;83.30
23301;DHT22;11819;51.394;12.340;2022-11-20T02:59:47;-1.20;83.50
23301;DHT22;11819;51.394;12.340;2022-11-20T03:02:12;-1.20;83.60
23301;DHT22;11819;51.394;12.340;2022-11-20T03:04:38;-1.20;83.80
23301;DHT22;11819;51.394;12.340;2022-11-20T03:07:04;-1.20;83.80
23301;DHT22;11819;51.394;12.340;2022-11-20T03:09:29;-1.10;83.80
23301;DHT22;11819;51.394;12.340;2022-11-20T03:11:55;-1.20;83.60
23301;DHT22;11819;51.394;12.340;2022-11-20T03:14:21;-1.20;83.70
23301;DHT22;11819;51.394;12.340;2022-11-20T03:16:46;-1.20;83.70
23301;DHT22;11819;51.394;12.340;2022-11-20T03:19:12;-1.20;83.70
23301;DHT22;11819;51.394;12.340;2022-11-20T03:21:38;-1.20;83.70
23301;DHT22;11819;51.394;12.340;2022-11-20T03:24:04;-1.30;83.60
23301;DHT22;11819;51.394;12.340;2022-11-20T03:26:30;-1.30;83.60
23301;DHT22;11819;51.394;12.340;2022-11-20T03:28:58;-1.30;83.70
23301;DHT22;11819;51.394;12.340;2022-11-20T03:31:30;-1.40;83.70
23301;DHT22;11819;51.394;12.340;2022-11-20T03:33:57;-1.40;83.80
23301;DHT22;11819;51.394;12.340;2022-11-20T03:36:23;-1.50;83.90
23301;DHT22;11819;51.394;12.340;2022-11-20T03:38:49;-1.50;84.10
23301;DHT22;11819;51.394;12.340;2022-11-20T03:41:18;-1.50;84.20
23301;DHT22;11819;51.394;12.340;2022-11-20T03:43:49;-1.50;84.30
23301;DHT22;11819;51.394;12.340;2022-11-20T03:46:15;-1.50;84.40
23301;DHT22;11819;51.394;12.340;2022-11-20T03:48:40;-1.50;84.60
23301;DHT22;11819;51.394;12.340;2022-11-20T03:51:08;-1.50;84.60
23301;DHT22;11819;51.394;12.340;2022-11-20T03:53:33;-1.50;84.60
23301;DHT22;11819;51.394;12.340;2022-11-20T03:55:59;-1.50;84.60
23301;DHT22;11819;51.394;12.340;2022-11-20T03:58:25;-1.50;84.70
23301;DHT22;11819;51.394;12.340;2022-11-20T04:00:50;-1.50;84.80
23301;DHT22;11819;51.394;12.340;2022-11-20T04:03:16;-1.40;84.90
23301;DHT22;11819;51.394;12.340;2022-11-20T04:05:42;-1.40;84.80
23301;DHT22;11819;51.394;12.340;2022-11-20T04:08:07;-1.50;84.70
23301;DHT22;11819;51.394;12.340;2022-11-20T04:10:33;-1.60;84.70
23301;DHT22;11819;51.394;12.340;2022-11-20T04:12:59;-1.60;84.80
23301;DHT22;11819;51.394;12.340;2022-11-20T04:15:24;-1.60;85.00
23301;DHT22;11819;51.394;12.340;2022-11-20T04:17:50;-1.60;85.10
23301;DHT22;11819;51.394;12.340;2022-11-20T04:20:16;-1.60;85.20
23301;DHT22;11819;51.394;12.340;2022-11-20T04:22:41;-1.60;85.30
23301;DHT22;11819;51.394;12.340;2022-11-20T04:25:07;-1.60;85.30
23301;DHT22;11819;51.394;12.340;2022-11-20T04:27:33;-1.60;85.30
23301;DHT22;11819;51.394;12.340;2022-11-20T04:29:59;-1.60;85.30
23301;DHT22;11819;51.394;12.340;2022-11-20T04:32:24;-1.70;85.40
23301;DHT22;11819;51.394;12.340;2022-11-20T04:34:50;-1.70;85.50
23301;DHT22;11819;51.394;12.340;2022-11-20T04:37:16;-1.70;85.50
23301;DHT22;11819;51.394;12.340;2022-11-20T04:39:41;-1.70;85.60
23301;DHT22;11819;51.394;12.340;2022-11-20T04:42:09;-1.70;85.70
23301;DHT22;11819;51.394;12.340;2022-11-20T04:44:54;-1.70;85.80
23301;DHT22;11819;51.394;12.340;2022-11-20T04:47:20;-1.70;85.80
23301;DHT22;11819;51.394;12.340;2022-11-20T04:49:46;-1.70;85.80
23301;DHT22;11819;51.394;12.340;2022-11-20T04:52:11;-1.70;85.80
23301;DHT22;11819;51.394;12.340;2022-11-20T04:54:37;-1.70;85.90
23301;DHT22;11819;51.394;12.340;2022-11-20T04:57:03;-1.70;86.00
23301;DHT22;11819;51.394;12.340;2022-11-20T04:59:28;-1.70;86.00
23301;DHT22;11819;51.394;12.340;2022-11-20T05:01:54;-1.70;86.10
23301;DHT22;11819;51.394;12.340;2022-11-20T05:04:20;-1.70;86.10
23301;DHT22;11819;51.394;12.340;2022-11-20T05:06:45;-1.70;86.00
23301;DHT22;11819;51.394;12.340;2022-11-20T05:09:12;-1.80;86.00
23301;DHT22;11819;51.394;12.340;2022-11-20T05:11:38;-1.70;86.10
23301;DHT22;11819;51.394;12.340;2022-11-20T05:14:03;-1.80;86.20
23301;DHT22;11819;51.394;12.340;2022-11-20T05:16:29;-1.80;86.20
23301;DHT22;11819;51.394;12.340;2022-11-20T05:18:55;-1.80;86.20
23301;DHT22;11819;51.394;12.340;2022-11-20T05:21:21;-1.80;86.20
23301;DHT22;11819;51.394;12.340;2022-11-20T05:23:47;-1.80;86.30
23301;DHT22;11819;51.394;12.340;2022-11-20T05:26:18;-1.80;86.30
23301;DHT22;11819;51.394;12.340;2022-11-20T05:28:44;-1.80;86.30
23301;DHT22;11819;51.394;12.340;2022-11-20T05:31:12;-1.80;86.30
23301;DHT22;11819;51.394;12.340;2022-11-20T05:33:43;-1.90;86.20
23301;DHT22;11819;51.394;12.340;2022-11-20T05:36:10;-1.90;86.40
23301;DHT22;11819;51.394;12.340;2022-11-20T05:38:35;-2.00;86.40
23301;DHT22;11819;51.394;12.340;2022-11-20T05:41:13;-2.00;86.70
23301;DHT22;11819;51.394;12.340;2022-11-20T05:43:40;-2.00;86.70
23301;DHT22;11819;51.394;12.340;2022-11-20T05:46:08;-2.00;86.80
23301;DHT22;11819;51.394;12.340;2022-11-20T05:48:36;-2.00;86.80
23301;DHT22;11819;51.394;12.340;2022-11-20T05:51:04;-2.00;86.80
23301;DHT22;11819;51.394;12.340;2022-11-20T05:53:31;-2.00;86.80
23301;DHT22;11819;51.394;12.340;2022-11-20T05:56:08;-2.00;86.70
23301;DHT22;11819;51.394;12.340;2022-11-20T05:58:35;-2.00;86.80
23301;DHT22;11819;51.394;12.340;2022-11-20T06:01:12;-2.00;86.70
23301;DHT22;11819;51.394;12.340;2022-11-20T06:03:38;-2.00;86.70
23301;DHT22;11819;51.394;12.340;2022-11-20T06:06:05;-2.00;86.80
23301;DHT22;11819;51.394;12.340;2022-11-20T06:08:31;-2.10;86.70
23301;DHT22;11819;51.394;12.340;2022-11-20T06:10:57;-2.10;86.50
23301;DHT22;11819;51.394;12.340;2022-11-20T06:13:23;-2.20;86.50
23301;DHT22;11819;51.394;12.340;2022-11-20T06:15:53;-2.20;86.60
23301;DHT22;11819;51.394;12.340;2022-11-20T06:18:19;-2.30;86.80
23301;DHT22;11819;51.394;12.340;2022-11-20T06:20:45;-2.30;87.10
23301;DHT22;11819;51.394;12.340;2022-11-20T06:23:11;-2.30;87.20
23301;DHT22;11819;51.394;12.340;2022-11-20T06:25:38;-2.20;87.30
23301;DHT22;11819;51.394;12.340;2022-11-20T06:28:04;-2.20;87.30
23301;DHT22;11819;51.394;12.340;2022-11-20T06:30:30;-2.20;87.00
23301;DHT22;11819;51.394;12.340;2022-11-20T06:32:55;-2.20;87.00
23301;DHT22;11819;51.394;12.340;2022-11-20T06:35:21;-2.20;86.80
23301;DHT22;11819;51.394;12.340;2022-11-20T06:37:46;-2.30;86.70
23301;DHT22;11819;51.394;12.340;2022-11-20T06:40:12;-2.30;86.80
23301;DHT22;11819;51.394;12.340;2022-11-20T06:42:38;-2.40;86.90
23301;DHT22;11819;51.394;12.340;2022-11-20T06:45:04;-2.40;86.90
23301;DHT22;11819;51.394;12.340;2022-11-20T06:47:30;-2.40;87.00
23301;DHT22;11819;51.394;12.340;2022-11-20T06:49:55;-2.40;87.10
23301;DHT22;11819;51.394;12.340;2022-11-20T06:52:21;-2.40;87.10
23301;DHT22;11819;51.394;12.340;2022-11-20T06:54:47;-2.40;87.10
23301;DHT22;11819;51.394;12.340;2022-11-20T06:57:12;-2.40;87.20
23301;DHT22;11819;51.394;12.340;2022-11-20T06:59:38;-2.30;87.20
23301;DHT22;11819;51.394;12.340;2022-11-20T07:02:03;-2.30;87.30
23301;DHT22;11819;51.394;12.340;2022-11-20T07:04:29;-2.30;87.10
23301;DHT22;11819;51.394;12.340;2022-11-20T07:06:55;-2.30;87.00
23301;DHT22;11819;51.394;12.340;2022-11-20T07:09:20;-2.30;87.10
23301;DHT22;11819;51.394;12.340;2022-11-20T07:11:46;-2.30;87.10
23301;DHT22;11819;51.394;12.340;2022-11-20T07:14:12;-2.30;87.00
23301;DHT22;11819;51.394;12.340;2022-11-20T07:16:37;-2.30;87.10
23301;DHT22;11819;51.394;12.340;2022-11-20T07:19:03;-2.30;87.00
23301;DHT22;11819;51.394;12.340;2022-11-20T07:21:28;-2.30;86.80
23301;DHT22;11819;51.394;12.340;2022-11-20T07:23:54;-2.30;86.80
23301;DHT22;11819;51.394;12.340;2022-11-20T07:26:20;-2.40;86.70
23301;DHT22;11819;51.394;12.340;2022-11-20T07:28:46;-2.40;86.80
23301;DHT22;11819;51.394;12.340;2022-11-20T07:31:11;-2.40;87.00
23301;DHT22;11819;51.394;12.340;2022-11-20T07:33:38;-2.40;87.10
23301;DHT22;11819;51.394;12.340;2022-11-20T07:36:04;-2.50;87.10
23301;DHT22;11819;51.394;12.340;2022-11-20T07:38:30;-2.40;87.20
23301;DHT22;11819;51.394;12.340;2022-11-20T07:40:56;-2.40;87.20
23301;DHT22;11819;51.394;12.340;2022-11-20T07:43:23;-2.50;87.20
23301;DHT22;11819;51.394;12.340;2022-11-20T07:45:49;-2.50;87.20
23301;DHT22;11819;51.394;12.340;2022-11-20T07:48:15;-2.50;87.30
23301;DHT22;11819;51.394;12.340;2022-11-20T07:50:40;-2.60;87.40
23301;DHT22;11819;51.394;12.340;2022-11-20T07:53:06;-2.60;87.40
23301;DHT22;11819;51.394;12.340;2022-11-20T07:55:32;-2.60;87.60
23301;DHT22;11819;51.394;12.340;2022-11-20T07:57:58;-2.60;87.80
23301;DHT22;11819;51.394;12.340;2022-11-20T08:00:24;-2.60;87.80
23301;DHT22;11819;51.394;12.340;2022-11-20T08:02:50;-2.60;87.70
23301;DHT22;11819;51.394;12.340;2022-11-20T08:05:16;-2.60;87.90
23301;DHT22;11819;51.394;12.340;2022-11-20T08:07:43;-2.50;88.00
23301;DHT22;11819;51.394;12.340;2022-11-20T08:10:11;-2.60;88.00
23301;DHT22;11819;51.394;12.340;2022-11-20T08:12:43;-2.60;88.00
23301;DHT22;11819;51.394;12.340;2022-11-20T08:15:28;-2.60;88.00
23301;DHT22;11819;51.394;12.340;2022-11-20T08:18:00;-2.60;88.20
23301;DHT22;11819;51.394;12.340;2022-11-20T08:20:26;-2.50;88.30
23301;DHT22;11819;51.394;12.340;2022-11-20T08:22:52;-2.50;88.30
23301;DHT22;11819;51.394;12.340;2022-11-20T08:25:17;-2.40;88.40
23301;DHT22;11819;51.394;12.340;2022-11-20T08:27:43;-2.40;88.40
23301;DHT22;11819;51.394;12.340;2022-11-20T08:30:09;-2.40;88.60
23301;DHT22;11819;51.394;12.340;2022-11-20T08:32:35;-2.30;88.60
23301;DHT22;11819;51.394;12.340;2022-11-20T08:35:02;-2.20;88.60
23301;DHT22;11819;51.394;12.340;2022-11-20T08:37:28;-2.10;88.70
23301;DHT22;11819;51.394;12.340;2022-11-20T08:39:54;-2.10;88.60
23301;DHT22;11819;51.394;12.340;2022-11-20T08:42:22;-2.10;89.30
23301;DHT22;11819;51.394;12.340;2022-11-20T08:44:48;-2.10;88.30
23301;DHT22;11819;51.394;12.340;2022-11-20T08:47:13;-2.10;88.30
23301;DHT22;11819;51.394;12.340;2022-11-20T08:49:39;-2.10;88.40
23301;DHT22;11819;51.394;12.340;2022-11-20T08:52:04;-2.10;88.50
23301;DHT22;11819;51.394;12.340;2022-11-20T08:54:31;-2.10;88.60
23301;DHT22;11819;51.394;12.340;2022-11-20T08:56:56;-2.00;88.60
23301;DHT22;11819;51.394;12.340;2022-11-20T08:59:22;-2.00;88.70
23301;DHT22;11819;51.394;12.340;2022-11-20T09:01:49;-1.90;88.90
23301;DHT22;11819;51.394;12.340;2022-11-20T09:04:15;-1.90;89.00
23301;DHT22;11819;51.394;12.340;2022-11-20T09:06:41;-1.70;89.10
23301;DHT22;11819;51.394;12.340;2022-11-20T09:09:07;-1.70;88.90
23301;DHT22;11819;51.394;12.340;2022-11-20T09:11:33;-1.60;88.60
23301;DHT22;11819;51.394;12.340;2022-11-20T09:13:59;-1.60;88.60
23301;DHT22;11819;51.394;12.340;2022-11-20T09:16:25;-1.70;88.30
23301;DHT22;11819;51.394;12.340;2022-11-20T09:18:51;-1.60;88.60
23301;DHT22;11819;51.394;12.340;2022-11-20T09:21:17;-1.60;88.60
23301;DHT22;11819;51.394;12.340;2022-11-20T09:23:44;-1.60;88.70
23301;DHT22;11819;51.394;12.340;2022-11-20T09:26:14;-1.50;88.90
23301;DHT22;11819;51.394;12.340;2022-11-20T09:28:40;-1.40;88.90
23301;DHT22;11819;51.394;12.340;2022-11-20T09:31:20;-1.30;88.80
23301;DHT22;11819;51.394;12.340;2022-11-20T09:33:48;-1.30;88.70
23301;DHT22;11819;51.394;12.340;2022-11-20T09:36:14;-1.20;88.50
23301;DHT22;11819;51.394;12.340;2022-11-20T09:38:41;-1.20;89.20
23301;DHT22;11819;51.394;12.340;2022-11-20T09:46:17;-1.30;88.30
23301;DHT22;11819;51.394;12.340;2022-11-20T09:49:16;-1.30;88.60
23301;DHT22;11819;51.394;12.340;2022-11-20T09:52:00;-1.20;88.90
23301;DHT22;11819;51.394;12.340;2022-11-20T09:54:35;-1.20;88.90
23301;DHT22;11819;51.394;12.340;2022-11-20T09:57:09;-1.10;89.10
23301;DHT22;11819;51.394;12.340;2022-11-20T09:59:39;-1.10;89.00
23301;DHT22;11819;51.394;12.340;2022-11-20T10:05:02;-1.00;89.30
23301;DHT22;11819;51.394;12.340;2022-11-20T10:07:43;-1.00;89.30
23301;DHT22;11819;51.394;12.340;2022-11-20T10:10:31;-0.90;89.30
23301;DHT22;11819;51.394;12.340;2022-11-20T10:21:26;-0.80;89.80
23301;DHT22;11819;51.394;12.340;2022-11-20T10:27:19;-0.70;89.60
23301;DHT22;11819;51.394;12.340;2022-11-20T10:32:34;-0.70;89.70
23301;DHT22;11819;51.394;12.340;2022-11-20T10:35:16;-0.60;89.90
23301;DHT22;11819;51.394;12.340;2022-11-20T10:37:46;-0.60;89.90
23301;DHT22;11819;51.394;12.340;2022-11-20T10:43:17;-0.50;90.00
23301;DHT22;11819;51.394;12.340;2022-11-20T10:45:49;-0.50;90.00
23301;DHT22;11819;51.394;12.340;2022-11-20T10:48:23;-0.50;90.00
23301;DHT22;11819;51.394;12.340;2022-11-20T10:51:18;-0.50;90.20
23301;DHT22;11819;51.394;12.340;2022-11-20T10:56:52;-0.30;90.40
23301;DHT22;11819;51.394;12.340;2022-11-20T11:02:23;-0.10;90.40
23301;DHT22;11819;51.394;12.340;2022-11-20T11:04:51;0.00;90.40
23301;DHT22;11819;51.394;12.340;2022-11-20T11:07:21;0.10;90.40
23301;DHT22;11819;51.394;12.340;2022-11-20T11:09:50;0.20;90.30
23301;DHT22;11819;51.394;12.340;2022-11-20T11:12:17;0.20;90.30
23301;DHT22;11819;51.394;12.340;2022-11-20T11:14:52;0.30;90.30
23301;DHT22;11819;51.394;12.340;2022-11-20T11:17:26;0.40;90.30
23301;DHT22;11819;51.394;12.340;2022-11-20T11:22:34;0.50;90.10
23301;DHT22;11819;51.394;12.340;2022-11-20T11:25:25;0.60;90.00
23301;DHT22;11819;51.394;12.340;2022-11-20T11:27:53;0.60;89.90
23301;DHT22;11819;51.394;12.340;2022-11-20T11:30:22;0.60;89.80
23301;DHT22;11819;51.394;12.340;2022-11-20T11:32:48;0.60;89.70
23301;DHT22;11819;51.394;12.340;2022-11-20T11:35:26;0.60;89.30
23301;DHT22;11819;51.394;12.340;2022-11-20T11:38:01;0.60;89.10
23301;DHT22;11819;51.394;12.340;2022-11-20T11:40:31;0.60;88.90
23301;DHT22;11819;51.394;12.340;2022-11-20T11:42:59;0.60;88.80
23301;DHT22;11819;51.394;12.340;2022-11-20T11:45:27;0.60;88.70
23301;DHT22;11819;51.394;12.340;2022-11-20T11:47:54;0.60;88.60
23301;DHT22;11819;51.394;12.340;2022-11-20T11:50:26;0.60;88.60
23301;DHT22;11819;51.394;12.340;2022-11-20T11:53:14;0.70;88.70
23301;DHT22;11819;51.394;12.340;2022-11-20T11:55:52;0.80;88.80
23301;DHT22;11819;51.394;12.340;2022-11-20T12:01:03;0.80;88.30
23301;DHT22;11819;51.394;12.340;2022-11-20T12:03:38;0.80;88.20
23301;DHT22;11819;51.394;12.340;2022-11-20T12:06:12;0.80;87.90
23301;DHT22;11819;51.394;12.340;2022-11-20T12:09:08;0.80;88.00
23301;DHT22;11819;51.394;12.340;2022-11-20T12:11:54;0.80;87.80
23301;DHT22;11819;51.394;12.340;2022-11-20T12:14:29;0.80;87.70
23301;DHT22;11819;51.394;12.340;2022-11-20T12:16:57;0.80;87.70
23301;DHT22;11819;51.394;12.340;2022-11-20T12:19:23;0.90;87.70
23301;DHT22;11819;51.394;12.340;2022-11-20T12:25:18;0.90;87.60
23301;DHT22;11819;51.394;12.340;2022-11-20T12:30:33;1.00;87.50
23301;DHT22;11819;51.394;12.340;2022-11-20T12:33:18;1.00;87.50
23301;DHT22;11819;51.394;12.340;2022-11-20T12:38:48;1.00;87.50
23301;DHT22;11819;51.394;12.340;2022-11-20T12:44:40;1.10;87.30
23301;DHT22;11819;51.394;12.340;2022-11-20T12:52:48;1.20;86.70
23301;DHT22;11819;51.394;12.340;2022-11-20T13:00:40;1.30;86.20
23301;DHT22;11819;51.394;12.340;2022-11-20T13:08:23;1.40;86.10
23301;DHT22;11819;51.394;12.340;2022-11-20T13:11:00;1.50;86.50
23301;DHT22;11819;51.394;12.340;2022-11-20T13:13:43;1.80;87.60
23301;DHT22;11819;51.394;12.340;2022-11-20T13:16:29;2.20;88.00
23301;DHT22;11819;51.394;12.340;2022-11-20T13:18:56;2.60;87.80
23301;DHT22;11819;51.394;12.340;2022-11-20T13:21:44;3.00;87.20
23301;DHT22;11819;51.394;12.340;2022-11-20T13:29:27;4.00;84.60
23301;DHT22;11819;51.394;12.340;2022-11-20T13:32:14;4.30;83.50
23301;DHT22;11819;51.394;12.340;2022-11-20T13:34:52;4.50;81.40
23301;DHT22;11819;51.394;12.340;2022-11-20T13:37:48;4.70;80.00
23301;DHT22;11819;51.394;12.340;2022-11-20T13:40:24;4.70;78.30
23301;DHT22;11819;51.394;12.340;2022-11-20T13:45:37;4.40;76.40
23301;DHT22;11819;51.394;12.340;2022-11-20T13:48:23;4.30;76.30
23301;DHT22;11819;51.394;12.340;2022-11-20T13:51:11;4.20;75.90
23301;DHT22;11819;51.394;12.340;2022-11-20T14:01:54;3.30;74.80
23301;DHT22;11819;51.394;12.340;2022-11-20T14:04:28;3.10;74.80
23301;DHT22;11819;51.394;12.340;2022-11-20T14:06:55;3.00;75.10
23301;DHT22;11819;51.394;12.340;2022-11-20T14:09:29;2.90;75.50
23301;DHT22;11819;51.394;12.340;2022-11-20T14:11:56;2.90;75.50
23301;DHT22;11819;51.394;12.340;2022-11-20T14:14:24;2.70;75.50
23301;DHT22;11819;51.394;12.340;2022-11-20T14:16:51;2.60;75.50
23301;DHT22;11819;51.394;12.340;2022-11-20T14:19:26;2.50;75.70
23301;DHT22;11819;51.394;12.340;2022-11-20T14:22:20;2.40;75.90
23301;DHT22;11819;51.394;12.340;2022-11-20T14:24:48;2.40;76.30
23301;DHT22;11819;51.394;12.340;2022-11-20T14:27:19;2.30;76.40
23301;DHT22;11819;51.394;12.340;2022-11-20T14:29:48;2.40;77.10
23301;DHT22;11819;51.394;12.340;2022-11-20T14:32:16;2.50;78.00
23301;DHT22;11819;51.394;12.340;2022-11-20T14:34:44;2.70;78.20
23301;DHT22;11819;51.394;12.340;2022-11-20T14:37:13;2.70;77.70
23301;DHT22;11819;51.394;12.340;2022-11-20T14:39:47;2.70;77.40
23301;DHT22;11819;51.394;12.340;2022-11-20T14:42:18;2.60;77.20
23301;DHT22;11819;51.394;12.340;2022-11-20T14:44:45;2.60;77.20
23301;DHT22;11819;51.394;12.340;2022-11-20T14:47:12;2.50;77.40
23301;DHT22;11819;51.394;12.340;2022-11-20T14:49:39;2.40;77.60
23301;DHT22;11819;51.394;12.340;2022-11-20T14:52:15;2.40;77.90
23301;DHT22;11819;51.394;12.340;2022-11-20T14:54:51;2.30;78.10
23301;DHT22;11819;51.394;12.340;2022-11-20T14:57:31;2.30;78.10
23301;DHT22;11819;51.394;12.340;2022-11-20T15:02:44;2.10;78.50
23301;DHT22;11819;51.394;12.340;2022-11-20T15:05:10;2.00;78.80
23301;DHT22;11819;51.394;12.340;2022-11-20T15:07:38;1.90;79.20
23301;DHT22;11819;51.394;12.340;2022-11-20T15:10:12;1.90;79.30
23301;DHT22;11819;51.394;12.340;2022-11-20T15:13:12;1.80;79.50
23301;DHT22;11819;51.394;12.340;2022-11-20T15:15:49;1.80;80.70
23301;DHT22;11819;51.394;12.340;2022-11-20T15:18:22;1.70;80.00
23301;DHT22;11819;51.394;12.340;2022-11-20T15:20:48;1.70;80.20
23301;DHT22;11819;51.394;12.340;2022-11-20T15:23:16;1.70;80.40
23301;DHT22;11819;51.394;12.340;2022-11-20T15:25:44;1.60;80.60
23301;DHT22;11819;51.394;12.340;2022-11-20T15:30:48;1.50;81.10
23301;DHT22;11819;51.394;12.340;2022-11-20T15:33:16;1.50;81.40
23301;DHT22;11819;51.394;12.340;2022-11-20T15:35:42;1.50;81.60
23301;DHT22;11819;51.394;12.340;2022-11-20T15:38:08;1.40;81.80
23301;DHT22;11819;51.394;12.340;2022-11-20T15:40:33;1.40;82.10
23301;DHT22;11819;51.394;12.340;2022-11-20T15:42:59;1.40;82.20
23301;DHT22;11819;51.394;12.340;2022-11-20T15:45:42;1.40;82.30
23301;DHT22;11819;51.394;12.340;2022-11-20T15:48:11;1.30;82.30
23301;DHT22;11819;51.394;12.340;2022-11-20T15:50:42;1.30;82.50
23301;DHT22;11819;51.394;12.340;2022-11-20T15:53:10;1.20;82.60
23301;DHT22;11819;51.394;12.340;2022-11-20T15:55:35;1.20;82.70
23301;DHT22;11819;51.394;12.340;2022-11-20T15:58:01;1.20;82.80
23301;DHT22;11819;51.394;12.340;2022-11-20T16:00:26;1.20;83.00
23301;DHT22;11819;51.394;12.340;2022-11-20T16:02:52;1.10;83.00
23301;DHT22;11819;51.394;12.340;2022-11-20T16:05:18;1.10;83.10
23301;DHT22;11819;51.394;12.340;2022-11-20T16:07:44;1.10;83.10
23301;DHT22;11819;51.394;12.340;2022-11-20T16:10:09;1.10;83.10
23301;DHT22;11819;51.394;12.340;2022-11-20T16:12:35;1.10;83.20
23301;DHT22;11819;51.394;12.340;2022-11-20T16:15:19;1.00;83.10
23301;DHT22;11819;51.394;12.340;2022-11-20T16:18:04;1.00;83.30
23301;DHT22;11819;51.394;12.340;2022-11-20T16:20:29;0.90;83.50
23301;DHT22;11819;51.394;12.340;2022-11-20T16:22:55;0.90;83.60
23301;DHT22;11819;51.394;12.340;2022-11-20T16:25:21;0.80;83.70
23301;DHT22;11819;51.394;12.340;2022-11-20T16:27:46;0.80;83.90
23301;DHT22;11819;51.394;12.340;2022-11-20T16:30:12;0.80;84.00
23301;DHT22;11819;51.394;12.340;2022-11-20T16:32:38;0.80;84.00
23301;DHT22;11819;51.394;12.340;2022-11-20T16:35:04;0.80;84.10
23301;DHT22;11819;51.394;12.340;2022-11-20T16:37:30;0.80;84.10
23301;DHT22;11819;51.394;12.340;2022-11-20T16:39:55;0.80;84.10
23301;DHT22;11819;51.394;12.340;2022-11-20T16:42:21;0.80;84.10
23301;DHT22;11819;51.394;12.340;2022-11-20T16:44:47;0.70;84.20
23301;DHT22;11819;51.394;12.340;2022-11-20T16:47:13;0.80;84.30
23301;DHT22;11819;51.394;12.340;2022-11-20T16:49:38;0.70;84.30
23301;DHT22;11819;51.394;12.340;2022-11-20T16:52:04;0.70;84.30
23301;DHT22;11819;51.394;12.340;2022-11-20T16:54:30;0.70;84.40
23301;DHT22;11819;51.394;12.340;2022-11-20T16:56:55;0.70;84.40
23301;DHT22;11819;51.394;12.340;2022-11-20T16:59:21;0.70;84.50
23301;DHT22;11819;51.394;12.340;2022-11-20T17:01:46;0.70;84.50
23301;DHT22;11819;51.394;12.340;2022-11-20T17:04:12;0.60;84.60